Time;durP1;ratioP1;P1;durP2;ratioP2;P2;SDS_P1;SDS_P2;PMS_P1;PMS_P2;Temp;Humidity;BMP_temperature;BMP_pressure;BME280_temperature;BME280_humidity;BME280_pressure;Samples;Min_cycle;Max_cycle;Signal;HPM_P1;HPM_P2
2023/10/04 00:01:18;;;;;;;4.45;1.92;;;11.80;67.40;;;;;;5046118;28;20048;-90
2023/10/04 00:03:44;;;;;;;5.97;2.10;;;11.80;68.40;;;;;;5030280;28;20045;-89
2023/10/04 00:06:12;;;;;;;6.43;2.10;;;11.90;69.40;;;;;;5029568;28;20091;-90
2023/10/04 00:08:38;;;;;;;7.50;2.67;;;11.80;70.30;;;;;;5045916;28;20397;-89
2023/10/04 00:11:04;;;;;;;9.55;3.95;;;12.00;71.20;;;;;;5027987;28;20045;-89
2023/10/04 00:13:33;;;;;;;5.18;2.28;;;11.90;72.90;;;;;;5046117;28;20478;-89
2023/10/04 00:16:02;;;;;;;7.10;2.50;;;12.00;72.70;;;;;;5062306;28;20063;-90
2023/10/04 00:18:28;;;;;;;7.70;2.38;;;11.00;72.50;;;;;;5062406;28;20424;-90
2023/10/04 00:20:55;;;;;;;8.23;2.07;;;12.00;73.90;;;;;;5029168;28;20048;-90
2023/10/04 00:23:23;;;;;;;6.25;2.95;;;12.10;74.30;;;;;;5030009;28;20044;-89
2023/10/04 00:25:52;;;;;;;10.57;2.80;;;12.10;74.00;;;;;;5045903;28;20048;-89
2023/10/04 00:28:17;;;;;;;6.00;2.30;;;12.10;74.60;;;;;;5062303;28;20056;-89
2023/10/04 00:30:43;;;;;;;5.87;2.73;;;12.10;74.70;;;;;;5062905;28;20051;-89
2023/10/04 00:33:16;;;;;;;6.83;2.30;;;12.10;74.70;;;;;;5061598;28;20088;-91
2023/10/04 00:35:42;;;;;;;7.05;2.13;;;12.10;76.00;;;;;;5046748;28;20111;-90
2023/10/04 00:38:09;;;;;;;6.50;2.50;;;12.10;74.80;;;;;;5029610;28;20098;-89
2023/10/04 00:40:37;;;;;;;7.45;2.45;;;12.10;74.60;;;;;;5045815;28;20154;-90
2023/10/04 00:43:13;;;;;;;11.20;3.00;;;12.20;75.20;;;;;;5045472;28;20056;-89
2023/10/04 00:45:42;;;;;;;7.18;2.05;;;12.10;75.60;;;;;;5030026;28;20051;-90
2023/10/04 00:48:14;;;;;;;5.88;2.08;;;12.40;75.90;;;;;;5061483;28;20052;-89
2023/10/04 00:50:41;;;;;;;9.35;2.50;;;12.20;76.90;;;;;;5061944;28;20139;-89
2023/10/04 00:53:13;;;;;;;;;;;12.10;77.70;;;;;;5062665;28;20070;-88
2023/10/04 00:55:43;;;;;;;5.10;2.38;;;12.10;82.30;;;;;;5040376;28;19925;-89
2023/10/04 00:58:14;;;;;;;8.88;3.30;;;12.10;77.60;;;;;;5041453;28;20051;-90
2023/10/04 01:00:46;;;;;;;4.90;2.45;;;12.00;78.00;;;;;;5041893;28;20053;-89
2023/10/04 01:03:14;;;;;;;6.85;2.35;;;12.00;79.30;;;;;;5058287;28;20136;-88
2023/10/04 01:05:47;;;;;;;6.00;2.30;;;11.30;79.50;;;;;;5058287;28;20391;-89
2023/10/04 01:08:20;;;;;;;8.57;2.50;;;12.00;80.40;;;;;;5041530;28;20052;-90
2023/10/04 01:10:47;;;;;;;9.60;2.22;;;12.00;80.70;;;;;;5058562;28;20041;-90
2023/10/04 01:13:17;;;;;;;6.13;2.42;;;12.00;81.10;;;;;;5041443;28;20045;-90
2023/10/04 01:15:50;;;;;;;6.95;3.03;;;12.10;81.40;;;;;;5055769;28;20053;-89
2023/10/04 01:18:20;;;;;;;9.95;2.35;;;12.00;81.60;;;;;;5041025;28;20056;-90
2023/10/04 01:20:46;;;;;;;6.90;2.55;;;12.00;81.80;;;;;;5041510;28;20102;-89
2023/10/04 01:23:16;;;;;;;12.38;4.32;;;12.00;82.30;;;;;;5057891;28;20084;-90
2023/10/04 01:25:49;;;;;;;8.50;2.50;;;10.90;81.60;;;;;;5074955;28;20044;-90
2023/10/04 01:28:34;;;;;;;9.15;3.08;;;12.10;83.70;;;;;;5041060;28;20572;-92
2023/10/04 01:31:08;;;;;;;5.75;2.55;;;12.60;83.60;;;;;;5041026;28;20045;-90
2023/10/04 01:33:44;;;;;;;7.75;2.53;;;12.10;83.70;;;;;;5041884;28;20052;-89
2023/10/04 01:36:27;;;;;;;9.30;2.47;;;11.90;84.00;;;;;;5041904;28;20048;-90
2023/10/04 01:38:53;;;;;;;6.30;2.25;;;12.30;84.70;;;;;;5041685;28;20077;-90
2023/10/04 01:41:25;;;;;;;10.30;2.42;;;11.80;85.50;;;;;;5057511;28;20048;-90
2023/10/04 01:43:53;;;;;;;8.13;3.22;;;11.80;85.80;;;;;;5040322;28;20044;-89
2023/10/04 01:46:19;;;;;;;7.45;2.10;;;11.80;86.60;;;;;;5040805;28;20132;-90
2023/10/04 01:48:45;;;;;;;10.05;3.83;;;11.90;89.00;;;;;;5039171;28;20083;-89
2023/10/04 01:51:12;;;;;;;9.43;2.78;;;11.80;88.80;;;;;;5040295;28;20048;-88
2023/10/04 01:53:42;;;;;;;7.95;3.08;;;11.80;89.10;;;;;;5040076;28;20510;-90
2023/10/04 01:56:08;;;;;;;9.25;3.03;;;11.90;89.40;;;;;;5024567;28;20565;-89
2023/10/04 01:58:37;;;;;;;9.97;2.77;;;11.80;90.30;;;;;;5040692;28;20087;-89
2023/10/04 02:01:08;;;;;;;10.80;2.80;;;11.80;90.30;;;;;;5024118;28;20291;-89
2023/10/04 02:03:38;;;;;;;7.25;2.72;;;11.80;90.60;;;;;;5007513;28;20037;-89
2023/10/04 02:06:08;;;;;;;9.48;2.97;;;11.80;90.80;;;;;;5039959;28;20037;-90
2023/10/04 02:08:36;;;;;;;12.88;2.88;;;11.80;91.00;;;;;;5003774;28;20064;-90
2023/10/04 02:11:07;;;;;;;10.63;3.50;;;11.80;91.10;;;;;;5004436;28;20046;-88
2023/10/04 02:13:43;;;;;;;10.23;3.08;;;11.80;91.30;;;;;;5020957;28;20049;-90
2023/10/04 02:16:18;;;;;;;7.85;2.67;;;11.80;90.90;;;;;;5003778;28;20533;-89
2023/10/04 02:18:44;;;;;;;11.65;3.33;;;11.90;90.50;;;;;;5020820;28;20128;-90
2023/10/04 02:21:11;;;;;;;6.35;2.88;;;11.80;90.40;;;;;;5005090;28;20087;-89
2023/10/04 02:23:37;;;;;;;9.05;2.67;;;11.90;90.20;;;;;;5007193;28;20037;-89
2023/10/04 02:26:10;;;;;;;10.70;4.22;;;11.90;90.30;;;;;;5039722;28;20044;-89
2023/10/04 02:28:39;;;;;;;10.75;2.97;;;11.80;90.20;;;;;;5021641;28;20049;-89
2023/10/04 02:31:07;;;;;;;10.25;2.63;;;11.90;90.30;;;;;;5022346;28;20041;-89
2023/10/04 02:33:39;;;;;;;6.38;2.75;;;11.80;90.00;;;;;;5022824;28;20041;-89
2023/10/04 02:36:07;;;;;;;10.48;2.83;;;11.80;90.00;;;;;;5006738;28;20041;-89
2023/10/04 02:38:34;;;;;;;8.07;2.58;;;11.80;90.20;;;;;;5039311;28;20067;-89
2023/10/04 02:41:02;;;;;;;4.38;2.30;;;11.90;89.80;;;;;;5023889;28;20053;-89
2023/10/04 02:43:30;;;;;;;12.38;2.88;;;11.80;89.80;;;;;;5022182;28;20040;-90
2023/10/04 02:45:59;;;;;;;6.53;2.53;;;11.80;89.80;;;;;;5038133;28;20051;-90
2023/10/04 02:48:25;;;;;;;9.98;3.25;;;11.90;89.90;;;;;;5039235;28;20041;-89
2023/10/04 02:50:52;;;;;;;10.83;2.87;;;11.90;90.10;;;;;;5056479;28;20082;-89
2023/10/04 02:53:19;;;;;;;8.48;2.60;;;11.90;89.80;;;;;;5039489;28;20291;-89
2023/10/04 02:55:47;;;;;;;14.45;3.58;;;11.90;89.70;;;;;;5022639;28;20076;-89
2023/10/04 02:58:16;;;;;;;9.95;2.50;;;12.00;89.20;;;;;;5039162;28;20055;-89
2023/10/04 03:00:46;;;;;;;10.10;2.90;;;12.00;88.60;;;;;;5022932;28;20055;-89
2023/10/04 03:03:25;;;;;;;7.93;2.58;;;11.90;87.20;;;;;;5023070;28;20041;-88
2023/10/04 03:05:51;;;;;;;8.25;2.60;;;12.10;85.80;;;;;;5039020;28;20045;-89
2023/10/04 03:08:17;;;;;;;9.60;2.97;;;12.10;85.20;;;;;;5022322;28;20049;-89
2023/10/04 03:10:50;;;;;;;6.20;2.35;;;12.10;84.00;;;;;;5021621;28;20163;-90
2023/10/04 03:13:24;;;;;;;10.35;4.05;;;12.20;83.10;;;;;;5022567;28;20072;-89
2023/10/04 03:15:53;;;;;;;7.88;2.85;;;12.30;82.90;;;;;;5022504;28;20086;-88
2023/10/04 03:18:20;;;;;;;12.32;2.72;;;12.30;82.40;;;;;;5023813;28;20052;-89
2023/10/04 03:23:48;;;;;;;9.57;3.03;;;12.10;81.10;;;;;;5042860;28;20079;-88
2023/10/04 03:26:14;;;;;;;14.13;3.40;;;12.10;81.60;;;;;;5027511;28;20051;-89
2023/10/04 03:28:40;;;;;;;10.02;2.75;;;12.20;82.50;;;;;;5043411;28;20053;-89
2023/10/04 03:31:14;;;;;;;7.47;3.35;;;12.10;83.00;;;;;;5027176;28;20401;-89
2023/10/04 03:33:44;;;;;;;9.32;3.38;;;12.00;83.90;;;;;;5026954;28;20116;-89
2023/10/04 03:36:17;;;;;;;9.52;3.03;;;12.00;84.60;;;;;;5026652;28;20044;-89
2023/10/04 03:38:46;;;;;;;9.60;2.50;;;12.00;84.70;;;;;;5043122;28;20056;-89
2023/10/04 03:41:12;;;;;;;12.10;4.18;;;12.00;84.20;;;;;;5027801;28;20134;-90
2023/10/04 03:43:40;;;;;;;9.88;3.97;;;12.00;84.10;;;;;;5043171;28;20045;-89
2023/10/04 03:46:17;;;;;;;8.13;2.90;;;12.00;84.60;;;;;;5009474;28;20045;-89
2023/10/04 03:48:47;;;;;;;8.18;2.83;;;12.00;84.80;;;;;;5026395;28;20059;-90
2023/10/04 03:51:15;;;;;;;10.75;2.85;;;12.00;85.50;;;;;;5023236;28;20046;-90
2023/10/04 03:53:44;;;;;;;14.05;3.83;;;12.00;86.70;;;;;;5043481;28;20110;-90
2023/10/04 03:56:17;;;;;;;8.95;3.13;;;11.90;87.20;;;;;;5045254;28;20048;-89
2023/10/04 03:58:43;;;;;;;9.70;3.35;;;11.10;87.80;;;;;;5045288;28;20402;-90
2023/10/04 04:01:14;;;;;;;11.23;3.10;;;12.00;89.60;;;;;;5044263;28;20059;-90
2023/10/04 04:03:40;;;;;;;11.48;3.33;;;11.80;89.90;;;;;;5045467;28;20048;-90
2023/10/04 04:06:06;;;;;;;10.48;3.15;;;11.90;90.10;;;;;;5046466;28;20052;-89
2023/10/04 04:08:33;;;;;;;10.18;3.28;;;11.90;90.50;;;;;;5043497;28;20401;-89
2023/10/04 04:10:58;;;;;;;;;;;11.80;90.40;;;;;;5027049;28;20050;-89
2023/10/04 04:13:26;;;;;;;8.63;3.08;;;11.80;91.50;;;;;;5045695;28;19920;-89
2023/10/04 04:15:52;;;;;;;10.05;3.72;;;11.70;90.30;;;;;;5046133;28;20052;-89
2023/10/04 04:18:21;;;;;;;9.30;4.00;;;11.80;90.20;;;;;;5045708;28;20385;-89
2023/10/04 04:20:50;;;;;;;10.80;3.30;;;11.70;90.20;;;;;;5044716;28;20294;-89
2023/10/04 04:23:19;;;;;;;7.38;3.25;;;11.70;90.30;;;;;;5059027;28;20048;-89
2023/10/04 04:25:47;;;;;;;10.10;3.78;;;11.60;90.70;;;;;;5040126;28;20036;-90
2023/10/04 04:28:17;;;;;;;5.80;2.80;;;11.70;90.80;;;;;;5025688;28;20052;-89
2023/10/04 04:30:46;;;;;;;8.70;2.97;;;11.80;91.00;;;;;;5025589;28;20131;-90
2023/10/04 04:33:15;;;;;;;15.90;4.18;;;11.50;91.10;;;;;;5042587;28;20064;-89
2023/10/04 04:35:48;;;;;;;8.18;2.80;;;11.50;91.30;;;;;;5058498;28;20052;-89
2023/10/04 04:38:24;;;;;;;8.57;3.30;;;11.50;91.50;;;;;;5023374;28;20071;-89
2023/10/04 04:41:04;;;;;;;10.27;3.35;;;11.90;91.60;;;;;;5039897;28;20486;-89
2023/10/04 04:45:58;;;;;;;13.48;3.60;;;11.50;93.00;;;;;;5061432;28;19921;-88
2023/10/04 04:48:25;;;;;;;4.57;3.53;;;11.40;91.80;;;;;;5027655;28;20044;-89
2023/10/04 04:50:52;;;;;;;8.88;2.92;;;11.40;91.70;;;;;;5061390;28;20040;-90
2023/10/04 04:53:21;;;;;;;8.85;3.35;;;11.50;92.20;;;;;;5045610;28;20070;-89
2023/10/04 04:55:50;;;;;;;12.30;4.10;;;11.60;92.80;;;;;;5043752;28;20114;-90
2023/10/04 04:58:18;;;;;;;10.73;3.05;;;11.40;92.60;;;;;;5044501;28;20083;-89
2023/10/04 05:00:47;;;;;;;8.93;3.03;;;11.40;92.80;;;;;;5061172;28;20056;-90
2023/10/04 05:03:32;;;;;;;;;;;;;;;;;;;;;
2023/10/04 05:06:06;;;;;;;7.50;3.38;;;11.50;93.30;;;;;;5045444;28;20059;-89
2023/10/04 05:08:32;;;;;;;8.50;3.15;;;11.50;93.80;;;;;;5060336;28;20050;-89
2023/10/04 05:10:59;;;;;;;10.23;3.60;;;11.40;93.70;;;;;;5044868;28;20104;-89
2023/10/04 05:13:28;;;;;;;8.55;2.92;;;11.40;93.80;;;;;;5028315;28;20413;-89
2023/10/04 05:15:59;;;;;;;10.20;2.90;;;11.60;94.20;;;;;;5061229;28;20450;-90
2023/10/04 05:18:28;;;;;;;6.47;2.85;;;11.50;94.40;;;;;;5045029;28;20470;-89
2023/10/04 05:20:56;;;;;;;12.75;3.53;;;11.60;94.50;;;;;;5044108;28;20142;-87
2023/10/04 05:23:24;;;;;;;9.30;3.05;;;11.50;94.70;;;;;;5045767;28;20036;-87
2023/10/04 05:26:01;;;;;;;7.43;3.40;;;11.60;94.50;;;;;;5039433;28;20063;-87
2023/10/04 05:28:27;;;;;;;8.25;3.17;;;11.60;94.70;;;;;;5041592;28;20125;-86
2023/10/04 05:30:53;;;;;;;9.45;4.03;;;11.50;94.80;;;;;;5040331;28;20516;-87
2023/10/04 05:33:21;;;;;;;9.20;3.70;;;11.60;95.30;;;;;;5040653;28;20045;-85
2023/10/04 05:35:53;;;;;;;12.32;3.22;;;11.60;95.00;;;;;;5058067;28;20373;-85
2023/10/04 05:38:19;;;;;;;10.85;3.65;;;11.60;95.20;;;;;;5041665;28;20044;-86
2023/10/04 05:40:49;;;;;;;9.05;3.80;;;11.70;95.40;;;;;;5057177;28;20166;-86
2023/10/04 05:43:16;;;;;;;8.95;3.65;;;11.70;95.50;;;;;;5023862;28;20397;-86
2023/10/04 05:45:43;;;;;;;11.93;4.00;;;11.70;95.70;;;;;;5024074;28;20059;-85
2023/10/04 05:48:10;;;;;;;8.85;3.80;;;11.70;95.70;;;;;;5056232;28;20051;-86
2023/10/04 05:50:36;;;;;;;;;;;11.70;95.90;;;;;;5057324;28;20402;-86
2023/10/04 05:53:06;;;;;;;8.10;3.35;;;11.60;97.10;;;;;;5040071;28;19920;-85
2023/10/04 05:55:34;;;;;;;9.40;3.50;;;11.60;96.20;;;;;;5056821;28;20063;-86
2023/10/04 05:58:04;;;;;;;15.65;4.60;;;11.60;96.40;;;;;;5056559;28;20052;-87
2023/10/04 06:00:33;;;;;;;14.20;3.60;;;11.70;96.60;;;;;;5057227;28;20060;-84
2023/10/04 06:03:06;;;;;;;15.05;4.75;;;11.70;96.80;;;;;;5057373;28;20052;-87
2023/10/04 06:05:34;;;;;;;14.13;4.10;;;11.70;96.90;;;;;;5045044;28;20073;-85
2023/10/04 06:08:15;;;;;;;16.95;4.40;;;11.70;97.10;;;;;;5055753;28;20059;-84
2023/10/04 06:10:45;;;;;;;12.63;4.13;;;11.70;97.20;;;;;;5024844;28;20047;-83
2023/10/04 06:13:13;;;;;;;15.60;4.38;;;11.70;97.40;;;;;;5073031;28;20086;-82
2023/10/04 06:15:47;;;;;;;12.23;4.38;;;11.80;97.50;;;;;;5039831;28;20056;-82
2023/10/04 06:18:13;;;;;;;8.57;3.40;;;11.80;97.40;;;;;;5056730;28;20052;-82
2023/10/04 06:20:40;;;;;;;;;;;11.80;97.70;;;;;;5065944;28;20051;-82
2023/10/04 06:23:10;;;;;;;12.63;3.97;;;11.80;99.00;;;;;;5071551;28;19985;-82
2023/10/04 06:25:45;;;;;;;7.22;3.25;;;11.90;97.70;;;;;;5055446;28;20052;-82
2023/10/04 06:28:13;;;;;;;14.18;4.53;;;11.90;97.60;;;;;;5052654;28;20122;-82
2023/10/04 06:30:40;;;;;;;12.02;3.70;;;12.00;97.20;;;;;;5053330;28;20080;-81
2023/10/04 06:33:08;;;;;;;7.75;4.47;;;12.00;97.10;;;;;;5035119;28;20048;-84
2023/10/04 06:35:37;;;;;;;15.52;4.85;;;12.00;97.00;;;;;;5011951;28;20069;-83
2023/10/04 06:38:08;;;;;;;15.07;4.50;;;12.10;96.80;;;;;;5053071;28;20052;-83
2023/10/04 06:40:35;;;;;;;9.85;3.90;;;12.10;96.70;;;;;;5072935;28;20048;-81
2023/10/04 06:43:05;;;;;;;11.13;4.63;;;12.10;96.50;;;;;;5075071;28;20132;-85
2023/10/04 06:45:33;;;;;;;8.98;4.05;;;12.20;96.60;;;;;;5038761;28;20055;-85
2023/10/04 06:48:00;;;;;;;10.25;4.53;;;12.30;96.50;;;;;;5058555;28;20094;-84
2023/10/04 06:50:32;;;;;;;;;;;12.40;96.60;;;;;;5037229;28;20055;-86
2023/10/04 06:52:58;;;;;;;21.35;4.03;;;12.60;97.30;;;;;;5039339;28;19921;-84
2023/10/04 06:55:25;;;;;;;10.05;3.95;;;12.60;95.00;;;;;;5055973;28;20058;-84
2023/10/04 06:57:51;;;;;;;;;;;12.60;94.60;;;;;;5073411;28;20040;-83
2023/10/04 07:00:31;;;;;;;;;;;;;;;;;;;;;
2023/10/04 07:02:59;;;;;;;9.63;4.00;;;12.50;94.40;;;;;;5057967;28;20049;-88
2023/10/04 07:05:41;;;;;;;8.05;4.18;;;12.70;94.10;;;;;;5039816;28;20493;-90
2023/10/04 07:08:08;;;;;;;9.98;4.70;;;12.80;93.50;;;;;;5031995;28;20084;-89
2023/10/04 07:10:35;;;;;;;10.13;3.88;;;12.90;93.30;;;;;;5038452;28;20048;-89
2023/10/04 07:13:02;;;;;;;;;;;12.90;93.00;;;;;;5038914;28;20087;-89
2023/10/04 07:15:32;;;;;;;13.02;5.38;;;13.20;92.20;;;;;;5038297;28;19920;-89
2023/10/04 07:17:59;;;;;;;11.68;4.60;;;13.50;89.10;;;;;;5055125;28;20139;-88
2023/10/04 07:20:25;;;;;;;8.20;3.28;;;13.00;87.00;;;;;;5054666;28;20045;-89
2023/10/04 07:22:58;;;;;;;9.70;3.30;;;13.50;87.00;;;;;;5021913;28;20046;-89
2023/10/04 07:25:26;;;;;;;10.15;3.90;;;13.60;85.50;;;;;;5037819;28;20049;-89
2023/10/04 07:27:53;;;;;;;7.93;3.78;;;13.80;82.90;;;;;;5038279;28;20090;-89
2023/10/04 07:30:22;;;;;;;8.45;3.78;;;14.10;78.90;;;;;;5054392;28;20131;-89
2023/10/04 07:32:48;;;;;;;8.27;3.42;;;14.20;78.60;;;;;;5022252;28;20048;-89
2023/10/04 07:35:24;;;;;;;11.32;3.88;;;13.50;76.60;;;;;;5037995;28;20044;-89
2023/10/04 07:37:51;;;;;;;9.20;3.60;;;14.00;74.00;;;;;;5038206;28;20079;-89
2023/10/04 07:40:17;;;;;;;11.45;4.30;;;14.00;75.80;;;;;;5055710;28;20036;-89
2023/10/04 07:42:47;;;;;;;9.77;3.53;;;14.00;75.10;;;;;;5054931;28;20052;-89
2023/10/04 07:45:16;;;;;;;11.10;4.20;;;13.90;73.40;;;;;;5054398;28;20049;-89
2023/10/04 07:47:43;;;;;;;12.25;4.00;;;14.00;72.50;;;;;;5037895;28;20057;-88
2023/10/04 07:50:10;;;;;;;;;;;14.00;70.60;;;;;;5038337;28;20102;-89
2023/10/04 07:52:37;;;;;;;7.82;3.67;;;14.10;65.70;;;;;;5038439;28;19946;-89
2023/10/04 07:55:14;;;;;;;10.40;3.85;;;14.10;70.40;;;;;;5054000;28;20049;-89
2023/10/04 07:57:42;;;;;;;9.02;3.50;;;14.20;67.10;;;;;;5038075;28;20413;-89
2023/10/04 08:00:18;;;;;;;8.35;3.78;;;14.20;65.30;;;;;;5054536;28;20055;-90
2023/10/04 08:02:50;;;;;;;12.02;4.20;;;14.40;61.40;;;;;;5038284;28;20045;-89
2023/10/04 08:05:20;;;;;;;10.82;4.32;;;14.60;57.80;;;;;;5038999;28;20482;-89
2023/10/04 08:07:51;;;;;;;8.98;4.07;;;14.00;55.20;;;;;;5041805;28;20055;-89
2023/10/04 08:10:23;;;;;;;9.07;3.55;;;15.00;52.00;;;;;;5041299;28;20040;-89
2023/10/04 08:12:54;;;;;;;13.13;4.18;;;15.20;48.60;;;;;;5041424;28;20041;-89
2023/10/04 08:15:21;;;;;;;10.73;3.95;;;15.30;41.70;;;;;;5045718;28;20053;-88
2023/10/04 08:17:48;;;;;;;8.15;3.58;;;15.30;37.30;;;;;;5061623;28;20037;-88
2023/10/04 08:20:14;;;;;;;;;;;15.40;31.70;;;;;;5045493;28;20044;-89
2023/10/04 08:22:44;;;;;;;12.20;3.85;;;15.50;23.10;;;;;;5045175;28;20073;-89
2023/10/04 08:25:17;;;;;;;14.60;4.15;;;15.60;28.50;;;;;;5044966;28;20142;-89
2023/10/04 08:27:44;;;;;;;17.35;5.22;;;15.70;25.60;;;;;;5044484;28;20093;-88
2023/10/04 08:30:12;;;;;;;11.00;3.88;;;15.80;22.00;;;;;;5061441;28;20040;-89
2023/10/04 08:32:44;;;;;;;11.73;4.38;;;15.90;18.60;;;;;;5044624;28;20234;-89
2023/10/04 08:35:21;;;;;;;7.90;3.97;;;16.00;13.50;;;;;;5028722;28;20055;-88
2023/10/04 08:37:55;;;;;;;;;;;16.10;8.50;;;;;;5045648;28;20055;-89
2023/10/04 08:40:25;;;;;;;8.40;3.92;;;15.80;1.00;;;;;;5060816;28;19927;-88
2023/10/04 08:42:51;;;;;;;11.77;4.20;;;15.80;13.70;;;;;;5061659;28;20086;-88
2023/10/04 08:45:21;;;;;;;10.13;3.78;;;15.20;11.50;;;;;;5061487;28;20044;-89
2023/10/04 08:47:52;;;;;;;10.18;3.83;;;15.70;9.80;;;;;;5043583;28;20044;-88
2023/10/04 08:50:43;;;;;;;10.90;4.88;;;15.80;11.90;;;;;;5061331;28;20044;-89
2023/10/04 08:53:21;;;;;;;10.98;4.30;;;15.90;6.30;;;;;;5033705;28;20061;-88
2023/10/04 08:55:58;;;;;;;11.38;4.15;;;15.90;8.80;;;;;;5060332;28;20059;-89
2023/10/04 08:58:24;;;;;;;8.75;3.80;;;15.90;7.80;;;;;;5042999;28;20553;-89
2023/10/04 09:00:51;;;;;;;11.02;4.03;;;16.00;10.50;;;;;;5060808;28;20098;-88
2023/10/04 09:03:21;;;;;;;8.05;4.30;;;16.00;7.10;;;;;;5043182;28;20045;-90
2023/10/04 09:05:51;;;;;;;11.73;4.70;;;16.10;5.00;;;;;;5041838;28;20097;-88
2023/10/04 09:08:18;;;;;;;9.90;4.10;;;16.00;3.60;;;;;;5059070;28;20109;-89
2023/10/04 09:10:44;;;;;;;10.27;3.75;;;16.00;3.50;;;;;;5060484;28;20048;-88
2023/10/04 09:13:10;;;;;;;7.85;4.47;;;16.10;4.90;;;;;;5043695;28;20389;-89
2023/10/04 09:15:37;;;;;;;11.52;4.22;;;16.30;3.50;;;;;;5059743;28;20185;-88
2023/10/04 09:18:03;;;;;;;;;;;16.30;1.00;;;;;;5027706;28;20052;-88
2023/10/04 09:20:32;;;;;;;8.48;3.75;;;16.30;1.00;;;;;;5044089;28;20361;-89
2023/10/04 09:22:59;;;;;;;10.02;4.55;;;16.30;1.00;;;;;;5060347;28;20044;-88
2023/10/04 09:25:36;;;;;;;11.07;3.75;;;16.30;1.00;;;;;;5027043;28;20053;-89
2023/10/04 09:28:04;;;;;;;11.48;3.88;;;16.40;1.00;;;;;;5060519;28;20481;-88
2023/10/04 09:30:34;;;;;;;12.45;4.03;;;16.40;1.00;;;;;;5060426;28;20059;-88
2023/10/04 09:33:28;;;;;;;13.80;4.57;;;16.50;1.00;;;;;;5043568;28;20478;-88
2023/10/04 09:35:59;;;;;;;9.75;4.00;;;16.60;1.00;;;;;;5043928;28;20052;-89
2023/10/04 09:38:25;;;;;;;13.00;4.32;;;16.70;1.00;;;;;;5027361;28;20044;-88
2023/10/04 09:41:27;;;;;;;;;;;;;;;;;;;;;
2023/10/04 09:43:53;;;;;;;9.65;3.92;;;16.80;1.00;;;;;;5060171;28;20055;-88
2023/10/04 09:46:40;;;;;;;;;;;;;;;;;;;;;
2023/10/04 09:49:09;;;;;;;7.97;3.58;;;16.90;1.00;;;;;;5059895;28;20067;-88
2023/10/04 09:51:35;;;;;;;10.65;3.88;;;16.60;1.00;;;;;;5060915;28;20098;-89
2023/10/04 09:54:04;;;;;;;7.22;4.07;;;17.00;1.00;;;;;;5059861;28;20056;-88
2023/10/04 09:56:43;;;;;;;11.75;4.78;;;17.00;1.00;;;;;;5028136;28;20102;-89
2023/10/04 09:59:11;;;;;;;12.48;4.30;;;17.00;1.00;;;;;;5044378;28;20070;-88
2023/10/04 10:01:38;;;;;;;8.95;4.05;;;16.90;1.00;;;;;;5059480;28;20460;-89
2023/10/04 10:04:11;;;;;;;7.78;4.20;;;16.90;1.00;;;;;;5060654;28;20053;-89
2023/10/04 10:06:55;;;;;;;7.95;3.90;;;16.90;1.00;;;;;;5060133;28;20052;-89
2023/10/04 10:09:31;;;;;;;12.18;5.22;;;17.00;1.00;;;;;;5043846;28;20083;-89
2023/10/04 10:11:58;;;;;;;10.88;4.65;;;16.90;1.00;;;;;;5043939;28;20048;-89
2023/10/04 10:14:27;;;;;;;10.20;4.45;;;16.70;1.00;;;;;;5058826;28;20063;-89
2023/10/04 10:16:56;;;;;;;11.18;4.40;;;16.90;1.00;;;;;;5043525;28;20040;-89
2023/10/04 10:19:26;;;;;;;15.55;5.22;;;16.70;1.00;;;;;;5026712;28;20135;-89
2023/10/04 10:22:19;;;;;;;9.80;4.00;;;16.60;1.00;;;;;;5043695;28;20135;-89
2023/10/04 10:24:54;;;;;;;9.23;4.15;;;16.60;1.00;;;;;;5076051;28;20051;-89
2023/10/04 10:27:23;;;;;;;14.70;3.97;;;16.60;1.00;;;;;;5042715;28;20041;-88
2023/10/04 10:29:51;;;;;;;15.63;4.95;;;16.60;1.00;;;;;;5042865;28;20493;-88
2023/10/04 10:32:22;;;;;;;10.45;4.30;;;16.50;1.00;;;;;;5043352;28;20139;-89
2023/10/04 10:35:12;;;;;;;8.90;4.45;;;16.10;1.00;;;;;;5043464;28;20040;-89
2023/10/04 10:37:38;;;;;;;10.35;4.53;;;16.40;1.00;;;;;;5042724;28;20091;-89
2023/10/04 10:40:09;;;;;;;8.63;4.18;;;16.40;1.00;;;;;;5042810;28;20048;-89
2023/10/04 10:43:08;;;;;;;7.03;4.03;;;15.50;1.00;;;;;;5041898;28;20446;-90
2023/10/04 10:45:34;;;;;;;9.15;4.00;;;16.10;1.00;;;;;;5058915;28;20382;-89
2023/10/04 10:48:08;;;;;;;13.13;4.78;;;16.40;1.00;;;;;;5042749;28;20045;-89
2023/10/04 10:50:37;;;;;;;10.50;4.72;;;16.40;1.00;;;;;;5059522;28;20048;-90
2023/10/04 10:53:09;;;;;;;10.20;4.30;;;16.30;1.00;;;;;;5026542;28;20504;-89
2023/10/04 10:55:35;;;;;;;13.02;4.85;;;16.40;1.00;;;;;;5042978;28;20056;-90
2023/10/04 10:58:01;;;;;;;12.77;3.88;;;16.40;1.00;;;;;;5042981;28;20048;-90
2023/10/04 11:00:36;;;;;;;7.78;4.75;;;16.30;1.00;;;;;;5042841;28;20143;-89
2023/10/04 11:03:06;;;;;;;8.68;4.50;;;16.40;1.00;;;;;;5042900;28;20044;-89
2023/10/04 11:05:32;;;;;;;10.40;4.80;;;16.30;1.00;;;;;;5026519;28;20504;-90
2023/10/04 11:07:58;;;;;;;9.07;4.88;;;16.30;1.00;;;;;;5043425;28;20048;-89
2023/10/04 11:10:25;;;;;;;12.30;3.78;;;16.30;1.00;;;;;;5060044;28;20551;-89
2023/10/04 11:12:55;;;;;;;13.57;4.70;;;16.30;1.00;;;;;;5042093;28;20040;-89
2023/10/04 11:15:23;;;;;;;11.07;4.72;;;16.20;1.00;;;;;;5026135;28;20131;-89
2023/10/04 11:17:50;;;;;;;10.10;4.32;;;16.20;1.00;;;;;;5042159;28;20070;-89
2023/10/04 11:20:21;;;;;;;12.77;5.18;;;16.30;1.00;;;;;;5058385;28;20048;-89
2023/10/04 11:22:51;;;;;;;8.40;4.53;;;16.30;1.00;;;;;;5059278;28;20055;-89
2023/10/04 11:25:20;;;;;;;11.23;4.30;;;16.20;1.00;;;;;;5042141;28;20045;-89
2023/10/04 11:27:50;;;;;;;16.73;4.80;;;16.20;1.00;;;;;;5058587;28;20037;-89
2023/10/04 11:30:22;;;;;;;9.18;4.70;;;16.30;1.00;;;;;;5059281;28;20102;-89
2023/10/04 11:32:48;;;;;;;15.55;5.18;;;16.30;1.00;;;;;;5042775;28;20108;-89
2023/10/04 11:35:19;;;;;;;12.35;4.75;;;15.50;1.00;;;;;;5059639;28;20131;-89
2023/10/04 11:37:48;;;;;;;12.68;5.57;;;16.40;1.00;;;;;;5059051;28;20084;-89
2023/10/04 11:40:17;;;;;;;9.38;4.15;;;16.30;1.00;;;;;;5044377;28;20076;-88
2023/10/04 11:42:46;;;;;;;14.27;5.40;;;16.40;1.00;;;;;;5045366;28;20131;-89
2023/10/04 11:45:23;;;;;;;10.57;4.40;;;16.40;1.00;;;;;;5046554;28;20040;-89
2023/10/04 11:48:05;;;;;;;10.60;5.07;;;16.50;1.00;;;;;;5044694;28;20052;-89
2023/10/04 11:50:46;;;;;;;9.13;4.40;;;16.50;1.00;;;;;;5030076;28;20040;-89
2023/10/04 11:53:13;;;;;;;17.10;5.10;;;16.60;1.00;;;;;;5063523;28;20047;-89
2023/10/04 11:55:39;;;;;;;;;;;16.60;1.00;;;;;;5063112;28;20143;-89
2023/10/04 11:58:06;;;;;;;11.85;4.82;;;16.60;1.00;;;;;;5046435;28;19952;-90
2023/10/04 12:00:33;;;;;;;15.18;5.63;;;16.70;1.00;;;;;;5046378;28;20053;-88
2023/10/04 12:03:01;;;;;;;11.82;4.07;;;16.70;1.00;;;;;;5029445;28;20102;-90
2023/10/04 12:05:29;;;;;;;7.03;3.88;;;16.70;1.00;;;;;;5046640;28;20478;-89
2023/10/04 12:07:58;;;;;;;11.20;4.15;;;16.80;1.00;;;;;;5047969;28;20049;-89
2023/10/04 12:10:28;;;;;;;14.02;4.07;;;16.70;1.00;;;;;;5047037;28;20394;-90
2023/10/04 12:12:57;;;;;;;9.32;3.97;;;16.70;1.00;;;;;;5046636;28;20044;-90
2023/10/04 12:15:24;;;;;;;13.75;4.80;;;16.80;1.00;;;;;;5046015;28;20086;-90
2023/10/04 12:17:53;;;;;;;11.50;3.67;;;16.70;1.00;;;;;;5061532;28;20448;-90
2023/10/04 12:20:22;;;;;;;12.40;4.47;;;16.60;1.00;;;;;;5062585;28;20049;-90
2023/10/04 12:22:51;;;;;;;12.90;6.75;;;16.60;1.00;;;;;;5061198;28;20125;-89
2023/10/04 12:25:17;;;;;;;9.93;4.00;;;16.60;1.00;;;;;;5041667;28;20156;-89
2023/10/04 12:27:44;;;;;;;8.05;4.05;;;16.50;1.00;;;;;;5041003;28;20087;-89
2023/10/04 12:30:17;;;;;;;10.25;3.83;;;16.50;1.00;;;;;;5058965;28;20139;-89
2023/10/04 12:32:43;;;;;;;10.77;4.32;;;16.60;1.00;;;;;;5062478;28;20048;-90
2023/10/04 12:35:13;;;;;;;10.13;4.10;;;16.60;1.00;;;;;;5014128;28;20151;-89
2023/10/04 12:37:39;;;;;;;9.95;4.15;;;16.70;1.00;;;;;;5062628;28;20047;-90
2023/10/04 12:40:17;;;;;;;9.02;4.30;;;16.60;1.00;;;;;;5044429;28;20481;-89
2023/10/04 12:42:45;;;;;;;11.10;4.32;;;16.80;1.00;;;;;;5062250;28;20580;-90
2023/10/04 12:45:11;;;;;;;11.35;5.15;;;16.80;1.00;;;;;;5044922;28;20052;-90
2023/10/04 12:47:41;;;;;;;10.30;4.05;;;16.80;1.00;;;;;;5045341;28;20063;-90
2023/10/04 12:50:09;;;;;;;13.43;5.00;;;16.90;1.00;;;;;;5061566;28;20040;-91
2023/10/04 12:52:35;;;;;;;10.38;4.90;;;16.90;1.00;;;;;;5045040;28;20059;-90
2023/10/04 12:55:01;;;;;;;;;;;16.90;1.00;;;;;;5062568;28;20514;-90
2023/10/04 12:57:28;;;;;;;11.68;3.75;;;16.80;1.00;;;;;;5045712;28;19920;-90
2023/10/04 12:59:54;;;;;;;7.32;3.85;;;16.80;1.00;;;;;;5045739;28;20470;-90
2023/10/04 13:02:22;;;;;;;9.27;3.92;;;16.90;1.00;;;;;;5061755;28;20051;-90
2023/10/04 13:04:51;;;;;;;8.50;4.65;;;16.80;1.00;;;;;;5045383;28;20041;-90
2023/10/04 13:07:18;;;;;;;12.95;4.55;;;16.90;1.00;;;;;;5046043;28;20048;-90
2023/10/04 13:09:51;;;;;;;9.85;3.80;;;16.90;1.00;;;;;;5045141;28;20134;-90
2023/10/04 13:12:17;;;;;;;11.23;5.03;;;16.90;1.00;;;;;;5029407;28;20051;-89